createdAt,value
2018-12-30T00:01:59.201Z,16.20
2018-12-30T00:04:29.313Z,13.17
2018-12-30T00:06:58.923Z,12.10
2018-12-30T00:09:28.337Z,14.43
2018-12-30T00:11:58.110Z,16.07
2018-12-30T00:14:27.579Z,15.53
2018-12-30T00:16:57.015Z,13.03
2018-12-30T00:19:26.775Z,17.73
2018-12-30T00:21:56.218Z,11.53
2018-12-30T00:24:26.555Z,15.63
2018-12-30T00:26:56.019Z,11.00
2018-12-30T00:29:25.400Z,11.57
2018-12-30T00:31:54.844Z,11.40
2018-12-30T00:34:24.623Z,10.83
2018-12-30T00:36:54.058Z,17.40
2018-12-30T00:39:23.455Z,15.10
2018-12-30T00:41:53.158Z,12.37
2018-12-30T00:44:22.635Z,17.40
2018-12-30T00:46:52.076Z,13.87
2018-12-30T00:49:21.671Z,13.07
2018-12-30T00:51:51.106Z,14.17
2018-12-30T00:54:20.645Z,15.13
2018-12-30T00:56:50.367Z,11.87
2018-12-30T00:59:19.840Z,11.83
2018-12-30T01:01:49.278Z,13.90
2018-12-30T01:04:19.209Z,13.90
2018-12-30T01:06:48.678Z,18.30
2018-12-30T01:09:18.079Z,13.23
2018-12-30T01:11:47.839Z,17.77
2018-12-30T01:14:17.324Z,15.27
2018-12-30T01:16:47.133Z,15.97
2018-12-30T01:19:16.570Z,14.00
2018-12-30T01:21:46.022Z,12.23
2018-12-30T01:24:15.454Z,12.23
2018-12-30T01:26:44.959Z,13.50
2018-12-30T01:29:14.455Z,14.73
2018-12-30T01:31:43.887Z,14.60
2018-12-30T01:34:13.580Z,14.87
2018-12-30T01:36:43.035Z,15.13
2018-12-30T01:39:12.523Z,13.93
2018-12-30T01:41:42.194Z,19.03
2018-12-30T01:44:11.672Z,25.03
2018-12-30T01:46:41.154Z,16.40
2018-12-30T01:49:11.022Z,14.93
2018-12-30T01:51:40.458Z,14.87
2018-12-30T01:54:10.141Z,20.20
2018-12-30T01:56:39.645Z,17.83
2018-12-30T01:59:09.495Z,14.67
2018-12-30T02:01:38.980Z,15.80
2018-12-30T02:04:08.485Z,14.40
2018-12-30T02:06:37.935Z,18.20
2018-12-30T02:09:08.103Z,13.73
2018-12-30T02:11:37.840Z,15.17
2018-12-30T02:14:08.501Z,13.10
2018-12-30T02:16:37.952Z,13.80
2018-12-30T02:19:08.058Z,12.30
2018-12-30T02:21:41.245Z,22.00
2018-12-30T02:24:08.865Z,13.67
2018-12-30T02:26:38.611Z,14.13
2018-12-30T02:29:07.984Z,16.20
2018-12-30T02:31:37.430Z,11.33
2018-12-30T02:34:07.246Z,16.67
2018-12-30T02:36:36.701Z,16.53
2018-12-30T02:39:07.488Z,13.97
2018-12-30T02:41:38.279Z,12.70
2018-12-30T02:44:08.068Z,10.93
2018-12-30T02:46:37.640Z,13.77
2018-12-30T02:49:07.160Z,13.17
2018-12-30T02:51:36.544Z,12.97
2018-12-30T02:54:06.121Z,16.90
2018-12-30T02:56:35.951Z,12.73
2018-12-30T02:59:05.451Z,11.13
2018-12-30T03:01:34.853Z,11.40
2018-12-30T03:04:04.585Z,11.43
2018-12-30T03:06:34.081Z,14.47
2018-12-30T03:09:05.351Z,12.67
2018-12-30T03:11:35.158Z,12.90
2018-12-30T03:14:04.557Z,15.60
2018-12-30T03:16:34.428Z,10.93
2018-12-30T03:19:04.287Z,12.13
2018-12-30T03:21:33.695Z,9.23
2018-12-30T03:24:03.214Z,12.10
2018-12-30T03:26:32.888Z,10.73
2018-12-30T03:29:02.264Z,11.93
2018-12-30T03:31:31.764Z,13.77
2018-12-30T03:34:01.560Z,12.63
2018-12-30T03:36:30.948Z,17.27
2018-12-30T03:39:00.349Z,12.93
2018-12-30T03:41:30.241Z,13.07
2018-12-30T03:43:59.727Z,12.73
2018-12-30T03:46:29.224Z,12.53
2018-12-30T03:48:58.856Z,15.13
2018-12-30T03:51:28.363Z,14.07
2018-12-30T03:53:57.872Z,13.60
2018-12-30T03:56:27.580Z,11.77
2018-12-30T03:58:56.999Z,17.97
2018-12-30T04:01:26.476Z,12.17
2018-12-30T04:03:56.212Z,19.83
2018-12-30T04:06:25.699Z,15.80
2018-12-30T04:08:55.189Z,10.33
2018-12-30T04:11:24.921Z,11.93
2018-12-30T04:13:54.773Z,18.83
2018-12-30T04:16:24.285Z,14.03
2018-12-30T04:18:54.052Z,10.30
2018-12-30T04:21:23.446Z,13.97
2018-12-30T04:23:52.856Z,14.67
2018-12-30T04:26:22.671Z,39.73
2018-12-30T04:28:52.167Z,20.77
2018-12-30T04:31:21.553Z,13.10
2018-12-30T04:33:51.216Z,12.13
2018-12-30T04:36:20.695Z,12.30
2018-12-30T04:38:50.177Z,12.87
2018-12-30T04:41:19.639Z,11.30
2018-12-30T04:43:49.198Z,10.60
2018-12-30T04:46:18.673Z,10.93
2018-12-30T04:48:48.104Z,7.80
2018-12-30T04:51:17.606Z,10.93
2018-12-30T04:53:47.108Z,8.73
2018-12-30T04:56:16.542Z,9.67
2018-12-30T04:58:45.967Z,10.23
2018-12-30T05:01:15.470Z,11.43
2018-12-30T05:03:45.008Z,8.10
2018-12-30T05:06:14.377Z,8.73
2018-12-30T05:08:43.759Z,10.87
2018-12-30T05:11:13.581Z,10.43
2018-12-30T05:13:43.075Z,8.93
2018-12-30T05:16:13.168Z,7.90
2018-12-30T05:18:42.638Z,11.73
2018-12-30T05:21:12.146Z,14.17
2018-12-30T05:23:41.535Z,13.60
2018-12-30T05:26:11.073Z,10.87
2018-12-30T05:28:40.577Z,10.23
2018-12-30T05:31:10.092Z,10.63
2018-12-30T05:33:39.836Z,14.40
2018-12-30T05:36:09.358Z,11.07
2018-12-30T05:38:38.836Z,11.50
2018-12-30T05:41:08.450Z,13.53
2018-12-30T05:43:37.916Z,11.07
2018-12-30T05:46:07.427Z,13.93
2018-12-30T05:48:37.869Z,10.83
2018-12-30T05:51:07.251Z,13.30
2018-12-30T05:53:36.659Z,8.93
2018-12-30T05:56:06.496Z,10.33
2018-12-30T05:58:36.073Z,12.23
2018-12-30T06:01:05.586Z,10.63
2018-12-30T06:03:35.543Z,14.33
2018-12-30T06:06:05.030Z,11.63
2018-12-30T06:08:34.536Z,14.27
2018-12-30T06:11:04.259Z,15.30
2018-12-30T06:13:33.673Z,17.47
2018-12-30T06:16:03.190Z,13.57
2018-12-30T06:18:33.064Z,12.83
2018-12-30T06:21:02.493Z,16.07
2018-12-30T06:23:31.950Z,12.13
2018-12-30T06:26:01.513Z,15.00
2018-12-30T06:28:31.097Z,15.37
2018-12-30T06:31:00.569Z,16.47
2018-12-30T06:33:30.327Z,13.07
2018-12-30T06:35:59.832Z,12.70
2018-12-30T06:38:29.335Z,16.63
2018-12-30T06:40:58.798Z,16.50
2018-12-30T06:43:28.310Z,18.13
2018-12-30T06:45:57.740Z,19.90
2018-12-30T06:48:27.453Z,14.87
2018-12-30T06:50:56.947Z,13.83
2018-12-30T06:53:26.484Z,20.40
2018-12-30T06:55:55.936Z,15.00
2018-12-30T06:58:25.591Z,13.17
2018-12-30T07:00:55.081Z,14.77
2018-12-30T07:03:24.891Z,15.37
2018-12-30T07:05:55.818Z,16.77
2018-12-30T07:08:25.308Z,15.47
2018-12-30T07:10:55.192Z,16.17
2018-12-30T07:13:24.791Z,13.07
2018-12-30T07:15:54.338Z,11.83
2018-12-30T07:18:24.017Z,11.03
2018-12-30T07:20:54.165Z,15.37
2018-12-30T07:23:23.545Z,13.47
2018-12-30T07:25:53.311Z,17.10
2018-12-30T07:28:22.790Z,12.97
2018-12-30T07:30:52.180Z,14.77
2018-12-30T07:33:23.113Z,13.50
2018-12-30T07:35:52.727Z,12.90
2018-12-30T07:38:28.035Z,15.07
2018-12-30T07:40:59.704Z,15.40
2018-12-30T07:43:29.122Z,16.83
2018-12-30T07:45:58.668Z,17.83
2018-12-30T07:48:28.180Z,15.47
2018-12-30T07:50:57.595Z,14.53
2018-12-30T07:53:27.358Z,17.13
2018-12-30T07:55:57.337Z,11.73
2018-12-30T07:58:26.843Z,12.07
2018-12-30T08:00:56.843Z,15.80
2018-12-30T08:03:26.364Z,15.37
2018-12-30T08:05:55.769Z,10.93
2018-12-30T08:08:25.657Z,15.10
2018-12-30T08:10:55.158Z,12.17
2018-12-30T08:13:25.292Z,11.60
2018-12-30T08:15:54.878Z,12.97
2018-12-30T08:18:25.972Z,11.20
2018-12-30T08:20:55.518Z,12.80
2018-12-30T08:23:25.118Z,10.73
2018-12-30T08:25:54.920Z,10.50
2018-12-30T08:28:25.224Z,11.10
2018-12-30T08:30:55.750Z,15.03
2018-12-30T08:33:25.776Z,13.63
2018-12-30T08:35:55.547Z,12.43
2018-12-30T08:38:25.110Z,10.00
2018-12-30T08:40:54.633Z,9.47
2018-12-30T08:43:24.263Z,13.53
2018-12-30T08:45:54.024Z,10.50
2018-12-30T08:48:23.442Z,10.37
2018-12-30T08:50:52.998Z,10.10
2018-12-30T08:53:29.365Z,11.57
2018-12-30T08:55:54.077Z,9.77
2018-12-30T08:58:23.562Z,14.63
2018-12-30T09:00:53.354Z,14.07
2018-12-30T09:03:22.915Z,12.90
2018-12-30T09:05:52.344Z,12.40
2018-12-30T09:08:25.787Z,11.17
2018-12-30T09:10:55.414Z,11.30
2018-12-30T09:13:24.912Z,10.13
2018-12-30T09:15:54.613Z,9.00
2018-12-30T09:18:24.048Z,10.53
2018-12-30T09:20:53.669Z,11.37
2018-12-30T09:23:23.501Z,12.17
2018-12-30T09:25:53.288Z,9.23
2018-12-30T09:28:22.806Z,14.73
2018-12-30T09:30:52.521Z,10.37
2018-12-30T09:33:23.188Z,10.03
2018-12-30T09:35:52.720Z,9.77
2018-12-30T09:38:22.524Z,10.33
2018-12-30T09:40:51.979Z,11.43
2018-12-30T09:43:21.430Z,9.70
2018-12-30T09:45:51.130Z,11.47
2018-12-30T09:48:20.634Z,11.37
2018-12-30T09:50:50.490Z,16.30
2018-12-30T09:53:20.245Z,13.93
2018-12-30T09:55:50.878Z,10.80
2018-12-30T09:58:20.494Z,8.33
2018-12-30T10:00:49.924Z,12.73
2018-12-30T10:03:22.251Z,10.53
2018-12-30T10:05:51.651Z,9.37
2018-12-30T10:08:21.465Z,10.37
2018-12-30T10:10:50.988Z,12.53
2018-12-30T10:13:20.493Z,8.97
2018-12-30T10:15:50.618Z,11.50
2018-12-30T10:18:20.301Z,11.80
2018-12-30T10:20:50.255Z,9.73
2018-12-30T10:23:20.298Z,11.33
2018-12-30T10:25:49.704Z,10.57
2018-12-30T10:28:20.339Z,13.23
2018-12-30T10:30:50.167Z,9.40
2018-12-30T10:33:19.763Z,7.50
2018-12-30T10:35:49.302Z,8.43
2018-12-30T10:38:19.061Z,8.73
2018-12-30T10:40:48.580Z,9.97
2018-12-30T10:43:18.026Z,9.50
2018-12-30T10:45:48.196Z,10.80
2018-12-30T10:48:21.696Z,11.47
2018-12-30T10:50:52.161Z,17.33
2018-12-30T10:53:21.706Z,11.10
2018-12-30T10:55:51.256Z,11.73
2018-12-30T10:58:21.317Z,10.43
2018-12-30T11:00:50.712Z,10.57
2018-12-30T11:03:20.161Z,15.27
2018-12-30T11:05:49.886Z,8.50
2018-12-30T11:08:19.418Z,10.17
2018-12-30T11:10:48.848Z,14.73
2018-12-30T11:13:18.663Z,12.07
2018-12-30T11:15:48.290Z,8.53
2018-12-30T11:18:17.820Z,8.40
2018-12-30T11:20:47.234Z,10.53
2018-12-30T11:23:16.698Z,9.70
2018-12-30T11:25:46.278Z,10.10
2018-12-30T11:28:16.125Z,8.80
2018-12-30T11:30:45.576Z,9.03
2018-12-30T11:33:14.997Z,9.03
2018-12-30T11:35:44.795Z,9.20
2018-12-30T11:38:14.374Z,9.23
2018-12-30T11:40:43.808Z,11.70
2018-12-30T11:43:13.273Z,15.80
2018-12-30T11:45:42.806Z,11.30
2018-12-30T11:48:12.340Z,16.07
2018-12-30T11:50:41.941Z,13.50
2018-12-30T11:53:11.349Z,12.13
2018-12-30T11:55:40.869Z,15.43
2018-12-30T11:58:10.566Z,14.87
2018-12-30T12:00:40.035Z,12.07
2018-12-30T12:03:09.527Z,19.17
2018-12-30T12:05:38.973Z,22.77
2018-12-30T12:08:08.380Z,15.73
2018-12-30T12:10:37.865Z,13.60
2018-12-30T12:13:07.433Z,12.80
2018-12-30T12:15:38.305Z,14.40
2018-12-30T12:18:07.761Z,17.93
2018-12-30T12:20:37.612Z,16.27
2018-12-30T12:23:07.216Z,15.10
2018-12-30T12:25:36.617Z,19.90
2018-12-30T12:28:06.489Z,16.70
2018-12-30T12:30:36.013Z,16.23
2018-12-30T12:33:05.496Z,14.47
2018-12-30T12:35:36.185Z,14.50
2018-12-30T12:38:06.696Z,13.93
2018-12-30T12:40:36.237Z,22.80
2018-12-30T12:43:05.910Z,16.30
2018-12-30T12:45:35.426Z,14.33
2018-12-30T12:48:04.919Z,12.00
2018-12-30T12:50:34.692Z,13.83
2018-12-30T12:53:04.209Z,12.57
2018-12-30T12:55:33.752Z,9.33
2018-12-30T12:58:03.487Z,7.30
2018-12-30T13:00:32.902Z,11.30
2018-12-30T13:03:02.305Z,7.90
2018-12-30T13:05:31.850Z,7.90
2018-12-30T13:08:01.372Z,11.17
2018-12-30T13:10:30.798Z,16.07
2018-12-30T13:13:00.386Z,10.73
2018-12-30T13:15:29.897Z,15.50
2018-12-30T13:17:59.410Z,14.10
2018-12-30T13:20:29.035Z,9.50
2018-12-30T13:22:58.535Z,8.87
2018-12-30T13:25:27.977Z,10.10
2018-12-30T13:27:57.654Z,9.73
2018-12-30T13:30:27.175Z,6.93
2018-12-30T13:32:56.691Z,5.77
2018-12-30T13:35:26.278Z,3.93
2018-12-30T13:37:55.692Z,5.63
2018-12-30T13:40:25.232Z,7.33
2018-12-30T13:42:55.097Z,8.83
2018-12-30T13:45:24.522Z,6.33
2018-12-30T13:47:55.188Z,5.23
2018-12-30T13:50:26.658Z,5.03
2018-12-30T13:52:56.214Z,4.07
2018-12-30T13:55:28.105Z,6.30
2018-12-30T13:58:00.860Z,6.17
2018-12-30T14:00:30.439Z,3.40
2018-12-30T14:03:00.224Z,3.20
2018-12-30T14:05:30.109Z,3.33
2018-12-30T14:08:02.280Z,2.93
2018-12-30T14:10:31.737Z,6.07
2018-12-30T14:13:03.491Z,4.87
2018-12-30T14:15:32.767Z,3.93
2018-12-30T14:18:02.499Z,4.90
2018-12-30T14:20:32.308Z,6.57
2018-12-30T14:23:01.773Z,6.37
2018-12-30T14:25:31.337Z,6.33
2018-12-30T14:28:02.408Z,5.67
2018-12-30T14:30:31.807Z,9.40
2018-12-30T14:33:01.249Z,5.57
2018-12-30T14:35:31.145Z,13.43
2018-12-30T14:38:00.668Z,9.33
2018-12-30T14:40:30.666Z,8.07
2018-12-30T14:43:00.439Z,15.90
2018-12-30T14:45:29.905Z,9.03
2018-12-30T14:47:59.361Z,15.30
2018-12-30T14:50:29.059Z,10.67
2018-12-30T14:52:58.601Z,21.87
2018-12-30T14:55:30.623Z,19.30
2018-12-30T14:58:00.377Z,16.63
2018-12-30T15:00:29.997Z,23.10
2018-12-30T15:02:59.525Z,12.97
2018-12-30T15:05:28.993Z,13.53
2018-12-30T15:07:58.433Z,15.10
2018-12-30T15:10:28.073Z,24.73
2018-12-30T15:12:59.015Z,18.40
2018-12-30T15:15:30.914Z,19.23
2018-12-30T15:18:00.455Z,17.87
2018-12-30T15:20:30.315Z,13.23
2018-12-30T15:22:59.718Z,14.93
2018-12-30T15:25:29.230Z,13.13
2018-12-30T15:27:58.842Z,11.30
2018-12-30T15:30:28.225Z,12.57
2018-12-30T15:32:57.664Z,14.27
2018-12-30T15:35:27.566Z,9.60
2018-12-30T15:37:57.084Z,13.50
2018-12-30T15:40:26.962Z,14.43
2018-12-30T15:42:56.578Z,15.90
2018-12-30T15:45:26.078Z,18.63
2018-12-30T15:47:55.560Z,20.23
2018-12-30T15:50:25.274Z,22.63
2018-12-30T15:52:54.688Z,21.73
2018-12-30T15:55:24.197Z,22.83
2018-12-30T15:57:53.756Z,20.40
2018-12-30T16:00:23.169Z,24.83
2018-12-30T16:02:52.795Z,37.87
2018-12-30T16:05:22.932Z,26.73
2018-12-30T16:07:52.352Z,19.57
2018-12-30T16:10:21.872Z,19.53
2018-12-30T16:12:51.618Z,16.40
2018-12-30T16:15:22.429Z,20.03
2018-12-30T16:17:51.837Z,24.60
2018-12-30T16:20:21.390Z,23.23
2018-12-30T16:22:50.927Z,15.87
2018-12-30T16:25:26.992Z,20.77
2018-12-30T16:27:51.742Z,25.47
2018-12-30T16:30:21.245Z,28.23
2018-12-30T16:32:51.061Z,27.13
2018-12-30T16:35:20.740Z,25.30
2018-12-30T16:37:50.159Z,25.80
2018-12-30T16:40:19.648Z,28.27
2018-12-30T16:42:49.193Z,28.00
2018-12-30T16:45:19.071Z,36.37
2018-12-30T16:47:48.476Z,32.80
2018-12-30T16:50:18.270Z,35.00
2018-12-30T16:52:47.791Z,28.03
2018-12-30T16:55:17.268Z,37.73
2018-12-30T16:57:47.075Z,36.63
2018-12-30T17:00:16.622Z,31.37
2018-12-30T17:02:46.237Z,24.57
2018-12-30T17:05:15.867Z,29.33
2018-12-30T17:07:45.725Z,33.13
2018-12-30T17:10:15.570Z,27.93
2018-12-30T17:12:45.468Z,29.27
2018-12-30T17:15:14.891Z,25.63
2018-12-30T17:17:44.854Z,30.70
2018-12-30T17:20:14.612Z,28.70
2018-12-30T17:22:44.042Z,32.00
2018-12-30T17:25:13.623Z,26.80
2018-12-30T17:27:43.435Z,30.77
2018-12-30T17:30:12.984Z,32.90
2018-12-30T17:32:42.402Z,35.53
2018-12-30T17:35:12.121Z,33.60
2018-12-30T17:37:41.641Z,26.57
2018-12-30T17:40:11.290Z,30.17
2018-12-30T17:42:40.893Z,38.63
2018-12-30T17:45:10.495Z,33.23
2018-12-30T17:47:39.995Z,35.67
2018-12-30T17:50:10.454Z,29.80
2018-12-30T17:52:39.853Z,35.90
2018-12-30T17:55:09.346Z,32.60
2018-12-30T17:57:39.186Z,36.20
2018-12-30T18:00:09.638Z,41.70
2018-12-30T18:02:39.459Z,42.37
2018-12-30T18:05:09.668Z,43.70
2018-12-30T18:07:39.099Z,34.43
2018-12-30T18:10:08.649Z,42.90
2018-12-30T18:12:38.321Z,37.47
2018-12-30T18:15:08.010Z,29.73
2018-12-30T18:17:41.483Z,34.07
2018-12-30T18:20:08.899Z,31.57
2018-12-30T18:22:38.523Z,31.97
2018-12-30T18:25:08.202Z,29.97
2018-12-30T18:27:37.755Z,27.30
2018-12-30T18:30:07.882Z,28.20
2018-12-30T18:32:37.409Z,31.53
2018-12-30T18:35:07.195Z,30.97
2018-12-30T18:37:36.599Z,31.10
2018-12-30T18:40:09.144Z,30.67
2018-12-30T18:42:38.821Z,36.47
2018-12-30T18:45:08.327Z,35.27
2018-12-30T18:47:37.835Z,32.23
2018-12-30T18:50:08.004Z,30.17
2018-12-30T18:52:37.400Z,32.00
2018-12-30T18:55:07.345Z,36.53
2018-12-30T18:57:37.099Z,35.20
2018-12-30T19:00:08.028Z,40.23
2018-12-30T19:02:37.488Z,33.27
2018-12-30T19:05:08.093Z,39.63
2018-12-30T19:07:37.565Z,37.07
2018-12-30T19:10:07.320Z,34.93
2018-12-30T19:12:36.945Z,31.23
2018-12-30T19:15:07.057Z,32.83
2018-12-30T19:17:36.564Z,34.23
2018-12-30T19:20:06.146Z,28.33
2018-12-30T19:22:35.659Z,29.53
2018-12-30T19:25:05.383Z,30.33
2018-12-30T19:27:35.057Z,33.13
2018-12-30T19:30:05.260Z,28.17
2018-12-30T19:32:34.741Z,29.33
2018-12-30T19:35:04.451Z,28.43
2018-12-30T19:37:33.854Z,33.57
2018-12-30T19:40:03.384Z,36.20
2018-12-30T19:42:33.113Z,46.07
2018-12-30T19:45:02.514Z,25.90
2018-12-30T19:47:31.905Z,22.63
2018-12-30T19:50:01.485Z,25.93
2018-12-30T19:52:30.944Z,30.83
2018-12-30T19:55:00.346Z,24.43
2018-12-30T19:57:30.002Z,22.60
2018-12-30T19:59:59.502Z,25.13
2018-12-30T20:02:28.963Z,18.10
2018-12-30T20:04:58.776Z,18.63
2018-12-30T20:07:28.725Z,22.93
2018-12-30T20:09:58.124Z,22.27
2018-12-30T20:12:27.751Z,20.37
2018-12-30T20:14:57.237Z,21.27
2018-12-30T20:17:26.734Z,24.93
2018-12-30T20:19:56.972Z,23.03
2018-12-30T20:22:26.378Z,25.70
2018-12-30T20:24:55.877Z,28.13
2018-12-30T20:27:25.632Z,30.07
2018-12-30T20:29:55.024Z,24.87
2018-12-30T20:32:24.411Z,26.00
2018-12-30T20:34:54.188Z,24.83
2018-12-30T20:37:23.676Z,28.40
2018-12-30T20:39:53.072Z,27.20
2018-12-30T20:42:22.946Z,29.23
2018-12-30T20:44:52.400Z,22.57
2018-12-30T20:47:21.792Z,28.20
2018-12-30T20:49:51.543Z,24.93
2018-12-30T20:52:22.895Z,24.10
2018-12-30T20:54:52.512Z,25.40
2018-12-30T20:57:21.974Z,20.73
2018-12-30T20:59:51.473Z,24.10
2018-12-30T21:02:20.961Z,25.40
2018-12-30T21:04:50.628Z,25.77
2018-12-30T21:07:20.035Z,23.97
2018-12-30T21:09:49.532Z,28.10
2018-12-30T21:12:19.241Z,24.67
2018-12-30T21:14:48.722Z,24.20
2018-12-30T21:17:18.135Z,27.10
2018-12-30T21:19:47.975Z,24.90
2018-12-30T21:22:18.745Z,24.83
2018-12-30T21:24:48.246Z,24.63
2018-12-30T21:27:18.015Z,21.00
2018-12-30T21:29:47.415Z,23.27
2018-12-30T21:32:16.883Z,22.90
2018-12-30T21:34:46.643Z,22.83
2018-12-30T21:37:16.148Z,20.60
2018-12-30T21:39:45.515Z,27.60
2018-12-30T21:42:15.270Z,25.30
2018-12-30T21:44:44.749Z,21.70
2018-12-30T21:47:14.233Z,22.77
2018-12-30T21:49:43.997Z,24.13
2018-12-30T21:52:13.445Z,22.97
2018-12-30T21:54:42.917Z,22.73
2018-12-30T21:57:12.701Z,22.27
2018-12-30T21:59:42.092Z,21.27
2018-12-30T22:02:11.587Z,28.10
2018-12-30T22:04:41.432Z,27.80
2018-12-30T22:07:10.936Z,22.20
2018-12-30T22:09:40.313Z,25.70
2018-12-30T22:12:09.961Z,24.37
2018-12-30T22:14:39.444Z,24.50
2018-12-30T22:17:08.910Z,24.93
2018-12-30T22:19:38.563Z,19.67
2018-12-30T22:22:07.960Z,25.90
2018-12-30T22:24:38.308Z,20.60
2018-12-30T22:27:08.095Z,24.00
2018-12-30T22:29:37.491Z,18.43
2018-12-30T22:32:06.875Z,22.17
2018-12-30T22:34:36.724Z,17.40
2018-12-30T22:37:06.234Z,21.10
2018-12-30T22:39:35.636Z,18.97
2018-12-30T22:42:05.437Z,20.53
2018-12-30T22:44:34.813Z,20.90
2018-12-30T22:47:04.199Z,19.97
2018-12-30T22:49:34.074Z,19.87
2018-12-30T22:52:03.545Z,22.70
2018-12-30T22:54:32.947Z,23.57
2018-12-30T22:57:02.690Z,18.83
2018-12-30T22:59:32.179Z,25.73
2018-12-30T23:02:01.675Z,25.97
2018-12-30T23:04:31.298Z,26.60
2018-12-30T23:07:00.688Z,24.97
2018-12-30T23:09:30.182Z,24.27
2018-12-30T23:12:01.669Z,26.00
2018-12-30T23:14:31.237Z,27.23
2018-12-30T23:17:00.627Z,24.73
2018-12-30T23:19:30.140Z,23.50
2018-12-30T23:21:59.535Z,28.47
2018-12-30T23:24:29.017Z,25.07
2018-12-30T23:26:58.911Z,26.23
2018-12-30T23:29:28.294Z,27.23
2018-12-30T23:31:57.698Z,23.43
2018-12-30T23:34:27.216Z,26.80
2018-12-30T23:36:56.697Z,26.10
2018-12-30T23:39:26.103Z,24.93
2018-12-30T23:41:55.732Z,23.73
2018-12-30T23:44:25.226Z,24.80
2018-12-30T23:46:54.695Z,30.80
2018-12-30T23:49:24.343Z,25.57
2018-12-30T23:51:53.725Z,29.77
2018-12-30T23:54:23.205Z,32.63
2018-12-30T23:56:52.742Z,27.37
2018-12-30T23:59:22.140Z,29.73
